Time;durP1;ratioP1;P1;durP2;ratioP2;P2;SDS_P1;SDS_P2;PMS_P1;PMS_P2;Temp;Humidity;BMP_temperature;BMP_pressure;BME280_temperature;BME280_humidity;BME280_pressure;Samples;Min_cycle;Max_cycle;Signal;HPM_P1;HPM_P2
2022/02/25 00:01:09;;;;;;;0.10;0.10;;;;;;;;;;5084101;28;20510;-64
2022/02/25 00:03:37;;;;;;;0.20;0.20;;;;;;;;;;5083994;28;20252;-64
2022/02/25 00:06:03;;;;;;;0.20;0.20;;;;;;;;;;5084033;28;20222;-64
2022/02/25 00:08:29;;;;;;;0.20;0.20;;;;;;;;;;5084151;28;20206;-64
2022/02/25 00:10:55;;;;;;;0.10;0.10;;;;;;;;;;5084180;28;20207;-64
2022/02/25 00:13:21;;;;;;;0.10;0.10;;;;;;;;;;5083866;28;20739;-65
2022/02/25 00:15:48;;;;;;;0.10;0.10;;;;;;;;;;5084143;28;20203;-65
2022/02/25 00:18:14;;;;;;;0.10;0.10;;;;;;;;;;5084161;28;20456;-65
2022/02/25 00:20:42;;;;;;;0.20;0.20;;;;;;;;;;5083930;28;20510;-64
2022/02/25 00:23:08;;;;;;;0.20;0.20;;;;;;;;;;5083480;28;20214;-64
2022/02/25 00:25:35;;;;;;;0.20;0.20;;;;;;;;;;5083226;28;20297;-63
2022/02/25 00:28:01;;;;;;;0.20;0.20;;;;;;;;;;5083967;28;20211;-64
2022/02/25 00:30:28;;;;;;;0.20;0.20;;;;;;;;;;5083355;28;20207;-64
2022/02/25 00:32:54;;;;;;;0.10;0.10;;;;;;;;;;5083267;28;20228;-69
2022/02/25 00:35:20;;;;;;;0.20;0.20;;;;;;;;;;5083810;28;20233;-71
2022/02/25 00:37:49;;;;;;;0.10;0.10;;;;;;;;;;5083740;28;20206;-71
2022/02/25 00:40:15;;;;;;;0.20;0.20;;;;;;;;;;5083551;28;20210;-70
2022/02/25 00:42:41;;;;;;;0.20;0.20;;;;;;;;;;5083478;28;20227;-72
2022/02/25 00:45:08;;;;;;;0.13;0.13;;;;;;;;;;5082959;28;20206;-70
2022/02/25 00:47:35;;;;;;;0.10;0.10;;;;;;;;;;5083226;28;20241;-71
2022/02/25 00:50:01;;;;;;;0.13;0.13;;;;;;;;;;5083392;28;20207;-69
2022/02/25 00:52:28;;;;;;;0.20;0.20;;;;;;;;;;5083386;28;20207;-71
2022/02/25 00:54:55;;;;;;;0.20;0.20;;;;;;;;;;5083270;28;20376;-71
2022/02/25 00:57:23;;;;;;;0.10;0.10;;;;;;;;;;5083259;28;20245;-70
2022/02/25 00:59:49;;;;;;;0.20;0.20;;;;;;;;;;5083123;28;20402;-70
2022/02/25 01:02:15;;;;;;;0.20;0.20;;;;;;;;;;5083260;28;20208;-69
2022/02/25 01:04:42;;;;;;;0.20;0.20;;;;;;;;;;5083063;28;20502;-70
2022/02/25 01:07:08;;;;;;;0.10;0.10;;;;;;;;;;5083032;28;20293;-70
2022/02/25 01:09:34;;;;;;;0.10;0.10;;;;;;;;;;5083149;28;20521;-70
2022/02/25 01:12:03;;;;;;;0.10;0.10;;;;;;;;;;5082603;28;20252;-70
2022/02/25 01:14:29;;;;;;;0.20;0.20;;;;;;;;;;5082948;28;20208;-70
2022/02/25 01:16:55;;;;;;;0.13;0.13;;;;;;;;;;5082999;28;20209;-69
2022/02/25 01:19:22;;;;;;;0.20;0.20;;;;;;;;;;5082722;28;20210;-70
2022/02/25 01:21:48;;;;;;;0.10;0.10;;;;;;;;;;5083069;28;20206;-70
2022/02/25 01:24:14;;;;;;;0.17;0.17;;;;;;;;;;5082815;28;20731;-70
2022/02/25 01:26:40;;;;;;;0.20;0.20;;;;;;;;;;5082834;28;20248;-71
2022/02/25 01:29:08;;;;;;;0.20;0.20;;;;;;;;;;5082859;28;20206;-69
2022/02/25 01:31:35;;;;;;;0.20;0.20;;;;;;;;;;5082916;28;20248;-69
2022/02/25 01:34:01;;;;;;;0.20;0.20;;;;;;;;;;5082521;28;20203;-70
2022/02/25 01:36:28;;;;;;;0.20;0.20;;;;;;;;;;5082506;28;20205;-70
2022/02/25 01:38:54;;;;;;;0.10;0.10;;;;;;;;;;5082472;28;20243;-70
2022/02/25 01:41:20;;;;;;;0.17;0.17;;;;;;;;;;5082315;28;20236;-69
2022/02/25 01:43:47;;;;;;;0.20;0.20;;;;;;;;;;5082727;28;20241;-70
2022/02/25 01:46:14;;;;;;;0.20;0.20;;;;;;;;;;5082476;28;20220;-69
2022/02/25 01:48:40;;;;;;;0.20;0.20;;;;;;;;;;5082350;28;20213;-71
2022/02/25 01:51:07;;;;;;;0.20;0.20;;;;;;;;;;5081975;28;20245;-70
2022/02/25 01:53:33;;;;;;;0.10;0.10;;;;;;;;;;5082624;28;20252;-69
2022/02/25 01:55:59;;;;;;;0.17;0.17;;;;;;;;;;5082125;28;20224;-71
2022/02/25 01:58:25;;;;;;;0.10;0.10;;;;;;;;;;5081929;28;20221;-70
2022/02/25 02:00:52;;;;;;;0.20;0.20;;;;;;;;;;5082116;28;20204;-68
2022/02/25 02:03:20;;;;;;;0.20;0.20;;;;;;;;;;5082575;28;20285;-70
2022/02/25 02:05:53;;;;;;;0.20;0.20;;;;;;;;;;5082450;28;20228;-69
2022/02/25 02:08:19;;;;;;;0.20;0.20;;;;;;;;;;5082742;28;20209;-71
2022/02/25 02:10:46;;;;;;;0.13;0.13;;;;;;;;;;5082410;28;20514;-69
2022/02/25 02:13:12;;;;;;;0.20;0.20;;;;;;;;;;5082520;28;20203;-72
2022/02/25 02:15:38;;;;;;;0.20;0.20;;;;;;;;;;5082061;28;20275;-70
2022/02/25 02:18:04;;;;;;;0.20;0.20;;;;;;;;;;5082359;28;20208;-71
2022/02/25 02:20:32;;;;;;;0.10;0.10;;;;;;;;;;5082114;28;20213;-69
2022/02/25 02:23:00;;;;;;;0.20;0.20;;;;;;;;;;5082277;28;20494;-69
2022/02/25 02:25:26;;;;;;;0.20;0.20;;;;;;;;;;5084028;28;20268;-69
2022/02/25 02:30:39;;;;;;;0.13;0.13;;;;;;;;;;5085685;28;20570;-69
2022/02/25 02:33:05;;;;;;;0.20;0.20;;;;;;;;;;5086076;28;20206;-70
2022/02/25 02:35:34;;;;;;;0.20;0.20;;;;;;;;;;5085799;28;20513;-70
2022/02/25 02:38:02;;;;;;;0.20;0.20;;;;;;;;;;5085467;28;20383;-70
2022/02/25 02:40:29;;;;;;;0.20;0.20;;;;;;;;;;5085726;28;20214;-71
2022/02/25 02:42:56;;;;;;;0.20;0.20;;;;;;;;;;5085685;28;20230;-70
2022/02/25 02:45:22;;;;;;;0.20;0.20;;;;;;;;;;5085697;28;20503;-70
2022/02/25 02:47:51;;;;;;;0.20;0.20;;;;;;;;;;5085789;28;20237;-69
2022/02/25 02:50:18;;;;;;;0.20;0.20;;;;;;;;;;5085305;28;20206;-70
2022/02/25 02:52:44;;;;;;;0.10;0.10;;;;;;;;;;5085242;28;20271;-71
2022/02/25 02:55:12;;;;;;;0.20;0.20;;;;;;;;;;5085234;28;20204;-71
2022/02/25 02:57:39;;;;;;;0.20;0.20;;;;;;;;;;5085616;28;20244;-69
2022/02/25 03:00:06;;;;;;;0.20;0.20;;;;;;;;;;5085209;28;20255;-70
2022/02/25 03:02:32;;;;;;;0.20;0.20;;;;;;;;;;5085451;28;20293;-70
2022/02/25 03:04:59;;;;;;;0.10;0.10;;;;;;;;;;5085309;28;20253;-70
2022/02/25 03:07:25;;;;;;;0.20;0.20;;;;;;;;;;5085351;28;20229;-70
2022/02/25 03:09:51;;;;;;;0.20;0.20;;;;;;;;;;5085294;28;20245;-70
2022/02/25 03:12:19;;;;;;;0.20;0.20;;;;;;;;;;5085378;28;20205;-70
2022/02/25 03:14:45;;;;;;;0.20;0.20;;;;;;;;;;5084895;28;20264;-71
2022/02/25 03:17:14;;;;;;;0.20;0.20;;;;;;;;;;5084952;28;20360;-70
2022/02/25 03:19:40;;;;;;;0.10;0.10;;;;;;;;;;5085136;28;20521;-70
2022/02/25 03:22:06;;;;;;;0.17;0.17;;;;;;;;;;5085159;28;20214;-70
2022/02/25 03:24:33;;;;;;;0.20;0.20;;;;;;;;;;5084652;28;20216;-69
2022/02/25 03:26:59;;;;;;;0.10;0.10;;;;;;;;;;5084884;28;20344;-70
2022/02/25 03:29:27;;;;;;;0.10;0.10;;;;;;;;;;5084835;28;20206;-69
2022/02/25 03:31:53;;;;;;;0.10;0.10;;;;;;;;;;5084888;28;20448;-68
2022/02/25 03:34:19;;;;;;;0.20;0.20;;;;;;;;;;5084794;28;20375;-70
2022/02/25 03:36:45;;;;;;;0.17;0.17;;;;;;;;;;5084312;28;20239;-70
2022/02/25 03:39:14;;;;;;;0.20;0.20;;;;;;;;;;5084549;28;20266;-72
2022/02/25 03:41:41;;;;;;;0.20;0.20;;;;;;;;;;5084403;28;20279;-69
2022/02/25 03:44:07;;;;;;;0.20;0.20;;;;;;;;;;5084609;28;20210;-69
2022/02/25 03:46:35;;;;;;;0.20;0.20;;;;;;;;;;5084345;28;20231;-69
2022/02/25 03:49:01;;;;;;;0.13;0.13;;;;;;;;;;5084495;28;20227;-69
2022/02/25 03:51:29;;;;;;;0.10;0.10;;;;;;;;;;5084524;28;20222;-70
2022/02/25 03:53:55;;;;;;;0.20;0.20;;;;;;;;;;5084381;28;20214;-70
2022/02/25 03:56:22;;;;;;;0.20;0.20;;;;;;;;;;5084346;28;20423;-70
2022/02/25 03:58:48;;;;;;;0.20;0.20;;;;;;;;;;5084322;28;20206;-69
2022/02/25 04:01:14;;;;;;;0.20;0.20;;;;;;;;;;5084299;28;20205;-70
2022/02/25 04:03:42;;;;;;;0.20;0.20;;;;;;;;;;5084228;28;20205;-69
2022/02/25 04:06:08;;;;;;;0.10;0.10;;;;;;;;;;5083684;28;20205;-70
2022/02/25 04:08:34;;;;;;;0.13;0.13;;;;;;;;;;5084164;28;20254;-70
2022/02/25 04:11:00;;;;;;;0.20;0.20;;;;;;;;;;5083694;28;20204;-69
2022/02/25 04:13:27;;;;;;;0.20;0.20;;;;;;;;;;5083978;28;20263;-70
2022/02/25 04:15:53;;;;;;;0.20;0.20;;;;;;;;;;5083965;28;20528;-69
2022/02/25 04:18:19;;;;;;;0.20;0.20;;;;;;;;;;5084247;28;20217;-70
2022/02/25 04:20:47;;;;;;;0.20;0.20;;;;;;;;;;5083634;28;20213;-69
2022/02/25 04:23:21;;;;;;;0.20;0.20;;;;;;;;;;5084020;28;20255;-68
2022/02/25 04:25:47;;;;;;;0.20;0.20;;;;;;;;;;5083502;28;20287;-69
2022/02/25 04:28:13;;;;;;;0.20;0.20;;;;;;;;;;5083926;28;20268;-70
2022/02/25 04:30:39;;;;;;;0.20;0.20;;;;;;;;;;5083668;28;20208;-69
2022/02/25 04:33:06;;;;;;;0.20;0.20;;;;;;;;;;5083738;28;20206;-70
2022/02/25 04:35:32;;;;;;;0.20;0.20;;;;;;;;;;5083323;28;20331;-70
2022/02/25 04:38:01;;;;;;;0.20;0.20;;;;;;;;;;5083705;28;20205;-70
2022/02/25 04:40:27;;;;;;;0.20;0.20;;;;;;;;;;5083568;28;20205;-70
2022/02/25 04:42:53;;;;;;;0.20;0.20;;;;;;;;;;5083635;28;20408;-71
2022/02/25 04:45:20;;;;;;;0.20;0.20;;;;;;;;;;5083039;28;20208;-70
2022/02/25 04:47:46;;;;;;;0.20;0.20;;;;;;;;;;5082582;28;20519;-71
2022/02/25 04:50:13;;;;;;;0.20;0.20;;;;;;;;;;5083110;28;20217;-70
2022/02/25 04:52:40;;;;;;;0.20;0.20;;;;;;;;;;5083217;28;20204;-70
2022/02/25 04:55:08;;;;;;;0.20;0.20;;;;;;;;;;5083246;28;20203;-69
2022/02/25 04:57:34;;;;;;;0.20;0.20;;;;;;;;;;5082827;28;20288;-70
2022/02/25 05:00:00;;;;;;;0.20;0.20;;;;;;;;;;5082590;28;20209;-70
2022/02/25 05:02:27;;;;;;;0.20;0.20;;;;;;;;;;5082776;28;20212;-70
2022/02/25 05:04:53;;;;;;;0.20;0.20;;;;;;;;;;5083026;28;20217;-71
2022/02/25 05:07:19;;;;;;;0.20;0.20;;;;;;;;;;5083011;28;20225;-70
2022/02/25 05:09:46;;;;;;;0.70;0.70;;;;;;;;;;5082986;28;20208;-69
2022/02/25 05:12:13;;;;;;;0.20;0.20;;;;;;;;;;5082760;28;20206;-70
2022/02/25 05:20:23;;;;;;;0.10;0.10;;;;;;;;;;5082639;28;20514;-70
2022/02/25 05:22:50;;;;;;;0.20;0.20;;;;;;;;;;5082450;28;20203;-69
2022/02/25 05:25:18;;;;;;;0.20;0.20;;;;;;;;;;5082570;28;20214;-69
2022/02/25 05:27:45;;;;;;;0.20;0.20;;;;;;;;;;5082794;28;20336;-70
2022/02/25 05:30:12;;;;;;;0.20;0.20;;;;;;;;;;5082492;28;20302;-70
2022/02/25 05:32:38;;;;;;;0.20;0.20;;;;;;;;;;5082933;28;20213;-70
2022/02/25 05:35:06;;;;;;;0.20;0.20;;;;;;;;;;5082789;28;20288;-70
2022/02/25 05:37:32;;;;;;;0.20;0.20;;;;;;;;;;5082930;28;20339;-70
2022/02/25 05:39:58;;;;;;;0.20;0.20;;;;;;;;;;5082310;28;20258;-71
2022/02/25 05:42:24;;;;;;;0.20;0.20;;;;;;;;;;5082691;28;20228;-70
2022/02/25 05:44:52;;;;;;;0.20;0.20;;;;;;;;;;5082429;28;20205;-70
2022/02/25 05:47:18;;;;;;;0.20;0.20;;;;;;;;;;5082440;28;20225;-70
2022/02/25 05:49:44;;;;;;;0.20;0.20;;;;;;;;;;5082650;28;20245;-69
2022/02/25 05:52:10;;;;;;;0.20;0.20;;;;;;;;;;5082681;28;20474;-71
2022/02/25 05:54:38;;;;;;;0.20;0.20;;;;;;;;;;5082346;28;20207;-70
2022/02/25 05:57:04;;;;;;;0.20;0.20;;;;;;;;;;5082561;28;20253;-71
2022/02/25 05:59:30;;;;;;;0.20;0.20;;;;;;;;;;5084947;28;20200;-69
2022/02/25 06:01:58;;;;;;;0.20;0.20;;;;;;;;;;5086485;28;20249;-70
2022/02/25 06:04:24;;;;;;;0.20;0.20;;;;;;;;;;5086553;28;20204;-70
2022/02/25 06:06:50;;;;;;;0.20;0.20;;;;;;;;;;5086037;28;20234;-68
2022/02/25 06:09:17;;;;;;;0.10;0.10;;;;;;;;;;5085933;28;20203;-70
2022/02/25 06:11:43;;;;;;;0.20;0.20;;;;;;;;;;5086411;28;20266;-70
2022/02/25 06:14:10;;;;;;;0.20;0.20;;;;;;;;;;5086284;28;20292;-70
2022/02/25 06:16:36;;;;;;;0.20;0.20;;;;;;;;;;5086265;28;20228;-70
2022/02/25 06:19:04;;;;;;;0.20;0.20;;;;;;;;;;5085953;28;20208;-70
2022/02/25 06:21:30;;;;;;;0.20;0.20;;;;;;;;;;5086109;28;20274;-70
2022/02/25 06:23:56;;;;;;;0.20;0.20;;;;;;;;;;5086080;28;20204;-71
2022/02/25 06:26:22;;;;;;;0.20;0.20;;;;;;;;;;5085787;28;20371;-70
2022/02/25 06:28:49;;;;;;;0.50;0.50;;;;;;;;;;5085784;28;20283;-70
2022/02/25 06:31:15;;;;;;;0.20;0.20;;;;;;;;;;5085984;28;20254;-70
2022/02/25 06:33:41;;;;;;;0.30;0.30;;;;;;;;;;5086105;28;20511;-70
2022/02/25 06:36:08;;;;;;;0.20;0.20;;;;;;;;;;5085632;28;20209;-70
2022/02/25 06:38:35;;;;;;;0.20;0.20;;;;;;;;;;5085640;28;20202;-70
2022/02/25 06:41:01;;;;;;;0.20;0.20;;;;;;;;;;5085663;28;20205;-69
2022/02/25 06:43:27;;;;;;;0.10;0.10;;;;;;;;;;5085770;28;20215;-70
2022/02/25 06:45:53;;;;;;;0.20;0.20;;;;;;;;;;5085606;28;20208;-72
2022/02/25 06:48:21;;;;;;;33.80;7.93;;;;;;;;;;5085537;28;20233;-71
2022/02/25 06:50:48;;;;;;;0.20;0.20;;;;;;;;;;5085490;28;20214;-71
2022/02/25 06:53:17;;;;;;;0.20;0.20;;;;;;;;;;5085606;28;20369;-69
2022/02/25 06:55:44;;;;;;;0.20;0.20;;;;;;;;;;5085535;28;20235;-70
2022/02/25 06:58:10;;;;;;;0.20;0.20;;;;;;;;;;5085551;28;20558;-72
2022/02/25 07:00:37;;;;;;;0.50;0.50;;;;;;;;;;5085098;28;20250;-71
2022/02/25 07:03:03;;;;;;;0.20;0.20;;;;;;;;;;5084958;28;20260;-70
2022/02/25 07:05:30;;;;;;;0.20;0.20;;;;;;;;;;5085294;28;20208;-71
2022/02/25 07:07:56;;;;;;;0.20;0.20;;;;;;;;;;5085268;28;20226;-71
2022/02/25 07:10:24;;;;;;;0.20;0.20;;;;;;;;;;5084164;28;20284;-73
2022/02/25 07:12:50;;;;;;;0.10;0.10;;;;;;;;;;5085561;28;20226;-70
2022/02/25 07:15:17;;;;;;;0.20;0.20;;;;;;;;;;5084938;28;20300;-70
2022/02/25 07:17:43;;;;;;;0.13;0.13;;;;;;;;;;5085305;28;20200;-72
2022/02/25 07:20:10;;;;;;;0.20;0.20;;;;;;;;;;5084981;28;20513;-70
2022/02/25 07:22:37;;;;;;;0.20;0.20;;;;;;;;;;5085266;28;20210;-70
2022/02/25 07:25:03;;;;;;;0.20;0.20;;;;;;;;;;5084637;28;20222;-70
2022/02/25 07:27:31;;;;;;;0.10;0.10;;;;;;;;;;5084529;28;20571;-70
2022/02/25 07:29:57;;;;;;;0.10;0.10;;;;;;;;;;5084851;28;20214;-70
2022/02/25 07:32:24;;;;;;;0.20;0.20;;;;;;;;;;5084922;28;20259;-70
2022/02/25 07:34:50;;;;;;;0.20;0.20;;;;;;;;;;5084491;28;20206;-71
2022/02/25 07:37:17;;;;;;;0.20;0.20;;;;;;;;;;5084771;28;20498;-69
2022/02/25 07:39:43;;;;;;;0.20;0.20;;;;;;;;;;5084064;28;20205;-71
2022/02/25 07:42:09;;;;;;;0.13;0.13;;;;;;;;;;5084622;28;20287;-70
2022/02/25 07:44:37;;;;;;;0.10;0.10;;;;;;;;;;5084438;28;20247;-72
2022/02/25 07:47:03;;;;;;;0.20;0.20;;;;;;;;;;5084383;28;20255;-70
2022/02/25 07:49:30;;;;;;;0.20;0.20;;;;;;;;;;5084098;28;20205;-70
2022/02/25 07:51:56;;;;;;;0.20;0.20;;;;;;;;;;5084061;28;20244;-70
2022/02/25 07:54:22;;;;;;;0.20;0.20;;;;;;;;;;5084274;28;20401;-70
2022/02/25 07:56:49;;;;;;;0.20;0.20;;;;;;;;;;5084214;28;20213;-70
2022/02/25 07:59:15;;;;;;;0.10;0.10;;;;;;;;;;5084197;28;20521;-72
2022/02/25 08:01:43;;;;;;;0.10;0.10;;;;;;;;;;5083927;28;20256;-70
2022/02/25 08:04:10;;;;;;;0.20;0.20;;;;;;;;;;5083796;28;20206;-70
2022/02/25 08:06:38;;;;;;;0.10;0.10;;;;;;;;;;5084053;28;20210;-71
2022/02/25 08:09:04;;;;;;;0.10;0.10;;;;;;;;;;5083963;28;20310;-71
2022/02/25 08:11:30;;;;;;;0.10;0.10;;;;;;;;;;5083854;28;20534;-70
2022/02/25 08:13:57;;;;;;;0.10;0.10;;;;;;;;;;5083880;28;20425;-69
2022/02/25 08:16:23;;;;;;;0.10;0.10;;;;;;;;;;5083642;28;20203;-70
2022/02/25 08:18:51;;;;;;;0.10;0.10;;;;;;;;;;5083826;28;20211;-69
2022/02/25 08:21:17;;;;;;;0.10;0.10;;;;;;;;;;5083837;28;20333;-70
2022/02/25 08:23:44;;;;;;;0.10;0.10;;;;;;;;;;5083786;28;20255;-70
2022/02/25 08:26:10;;;;;;;0.10;0.10;;;;;;;;;;5083285;28;20221;-70
2022/02/25 08:28:36;;;;;;;0.10;0.10;;;;;;;;;;5083582;28;20265;-71
2022/02/25 08:31:03;;;;;;;0.10;0.10;;;;;;;;;;5083591;28;20242;-70
2022/02/25 08:33:29;;;;;;;0.10;0.10;;;;;;;;;;5083548;28;20242;-70
2022/02/25 08:35:57;;;;;;;0.10;0.10;;;;;;;;;;5083396;28;20221;-72
2022/02/25 08:38:23;;;;;;;0.20;0.20;;;;;;;;;;5083467;28;20256;-71
2022/02/25 08:40:49;;;;;;;0.67;0.50;;;;;;;;;;5083482;28;20213;-70
2022/02/25 08:43:15;;;;;;;0.73;0.73;;;;;;;;;;5083634;28;20389;-70
2022/02/25 08:45:42;;;;;;;0.10;0.10;;;;;;;;;;5083137;28;20259;-71
2022/02/25 08:48:11;;;;;;;0.10;0.10;;;;;;;;;;5083449;28;20296;-69
2022/02/25 08:50:38;;;;;;;0.20;0.20;;;;;;;;;;5083313;28;20249;-69
2022/02/25 08:53:05;;;;;;;0.10;0.10;;;;;;;;;;5083425;28;20211;-69
2022/02/25 08:55:32;;;;;;;0.10;0.10;;;;;;;;;;5083220;28;20376;-70
2022/02/25 08:58:00;;;;;;;0.10;0.10;;;;;;;;;;5083454;28;20227;-69
2022/02/25 09:00:27;;;;;;;0.05;0.05;;;;;;;;;;5082791;28;20528;-69
2022/02/25 09:02:54;;;;;;;0.10;0.10;;;;;;;;;;5083135;28;20203;-71
2022/02/25 09:05:21;;;;;;;0.10;0.10;;;;;;;;;;5083233;28;20203;-70
2022/02/25 09:07:48;;;;;;;0.10;0.10;;;;;;;;;;5082786;28;20219;-69
2022/02/25 09:10:16;;;;;;;0.00;0.00;;;;;;;;;;5082601;28;20541;-64
2022/02/25 09:12:45;;;;;;;0.10;0.10;;;;;;;;;;5083065;28;20256;-64
2022/02/25 09:15:13;;;;;;;0.10;0.10;;;;;;;;;;5082906;28;20292;-64
2022/02/25 09:17:40;;;;;;;0.10;0.10;;;;;;;;;;5083012;28;20204;-63
2022/02/25 09:20:08;;;;;;;0.10;0.10;;;;;;;;;;5082460;28;20375;-63
2022/02/25 09:22:34;;;;;;;0.03;0.03;;;;;;;;;;5082777;28;20245;-64
2022/02/25 09:25:01;;;;;;;0.00;0.00;;;;;;;;;;5082656;28;20244;-63
2022/02/25 09:27:29;;;;;;;0.03;0.03;;;;;;;;;;5082943;28;20212;-63
2022/02/25 09:29:55;;;;;;;0.00;0.00;;;;;;;;;;5082820;28;20497;-63
2022/02/25 09:32:22;;;;;;;0.08;0.08;;;;;;;;;;5082993;28;20212;-63
2022/02/25 09:34:48;;;;;;;0.20;0.20;;;;;;;;;;5082417;28;20206;-63
2022/02/25 09:37:14;;;;;;;0.10;0.10;;;;;;;;;;5082728;28;20205;-64
2022/02/25 09:39:40;;;;;;;0.10;0.10;;;;;;;;;;5082430;28;20530;-65
2022/02/25 09:42:09;;;;;;;0.00;0.00;;;;;;;;;;5082497;28;20230;-62
2022/02/25 09:44:36;;;;;;;0.10;0.10;;;;;;;;;;5082289;28;20205;-64
2022/02/25 09:47:03;;;;;;;0.10;0.10;;;;;;;;;;5082469;28;20210;-63
2022/02/25 09:49:30;;;;;;;0.10;0.10;;;;;;;;;;5082228;28;20251;-64
2022/02/25 09:51:57;;;;;;;0.00;0.00;;;;;;;;;;5082545;28;20208;-63
2022/02/25 09:54:23;;;;;;;0.10;0.10;;;;;;;;;;5082414;28;20238;-64
2022/02/25 09:56:50;;;;;;;0.10;0.10;;;;;;;;;;5082507;28;20404;-64
2022/02/25 09:59:16;;;;;;;0.10;0.10;;;;;;;;;;5082523;28;20201;-64
2022/02/25 10:01:44;;;;;;;0.10;0.10;;;;;;;;;;5082490;28;20205;-64
2022/02/25 10:04:11;;;;;;;0.10;0.10;;;;;;;;;;5081985;28;20292;-64
2022/02/25 10:06:38;;;;;;;0.00;0.00;;;;;;;;;;5082231;28;20242;-63
2022/02/25 10:09:11;;;;;;;0.10;0.10;;;;;;;;;;5082198;28;20224;-66
2022/02/25 10:11:52;;;;;;;0.10;0.10;;;;;;;;;;5082255;28;20218;-63
2022/02/25 10:14:29;;;;;;;0.10;0.10;;;;;;;;;;5081803;28;20510;-65
2022/02/25 10:17:06;;;;;;;0.10;0.10;;;;;;;;;;5082024;28;20210;-63
2022/02/25 10:19:32;;;;;;;0.10;0.10;;;;;;;;;;5082194;28;20195;-65
2022/02/25 10:22:11;;;;;;;0.10;0.10;;;;;;;;;;5082208;28;20485;-64
2022/02/25 10:24:43;;;;;;;0.10;0.10;;;;;;;;;;5082002;28;20519;-65
2022/02/25 10:27:16;;;;;;;0.10;0.10;;;;;;;;;;5082207;28;20525;-65
2022/02/25 10:29:50;;;;;;;0.10;0.10;;;;;;;;;;5082137;28;20239;-64
2022/02/25 10:32:20;;;;;;;0.10;0.10;;;;;;;;;;5082215;28;20428;-65
2022/02/25 10:34:46;;;;;;;0.10;0.10;;;;;;;;;;5081764;28;20207;-65
2022/02/25 10:37:12;;;;;;;0.40;0.40;;;;;;;;;;5081514;28;20440;-65
2022/02/25 10:39:39;;;;;;;0.10;0.10;;;;;;;;;;5081690;28;20270;-64
2022/02/25 10:42:07;;;;;;;0.10;0.10;;;;;;;;;;5081958;28;20425;-65
2022/02/25 10:44:41;;;;;;;0.10;0.10;;;;;;;;;;5081723;28;20233;-66
2022/02/25 10:47:11;;;;;;;0.10;0.10;;;;;;;;;;5085308;28;20499;-66
2022/02/25 10:49:39;;;;;;;0.10;0.10;;;;;;;;;;5085544;28;20589;-64
2022/02/25 10:52:19;;;;;;;0.10;0.10;;;;;;;;;;5085427;28;20211;-64
2022/02/25 10:54:48;;;;;;;0.10;0.10;;;;;;;;;;5085621;28;20194;-63
2022/02/25 10:57:14;;;;;;;0.20;0.20;;;;;;;;;;5085433;28;20205;-65
2022/02/25 10:59:42;;;;;;;0.10;0.10;;;;;;;;;;5085136;28;20264;-65
2022/02/25 11:02:22;;;;;;;0.10;0.10;;;;;;;;;;5085402;28;20392;-66
2022/02/25 11:05:01;;;;;;;0.80;0.80;;;;;;;;;;5085075;28;20261;-65
2022/02/25 11:07:30;;;;;;;0.10;0.10;;;;;;;;;;5085427;28;20213;-65
2022/02/25 11:09:56;;;;;;;0.10;0.10;;;;;;;;;;5085194;28;20224;-65
2022/02/25 11:12:22;;;;;;;0.10;0.10;;;;;;;;;;5085087;28;20275;-65
2022/02/25 11:14:49;;;;;;;0.10;0.10;;;;;;;;;;5084789;28;20200;-65
2022/02/25 11:17:16;;;;;;;0.10;0.10;;;;;;;;;;5085281;28;20512;-66
2022/02/25 11:19:42;;;;;;;0.10;0.10;;;;;;;;;;5085116;28;20443;-64
2022/02/25 11:22:10;;;;;;;0.10;0.10;;;;;;;;;;5084958;28;20211;-64
2022/02/25 11:24:38;;;;;;;0.10;0.10;;;;;;;;;;5084807;28;20458;-65
2022/02/25 11:27:06;;;;;;;0.10;0.10;;;;;;;;;;5084733;28;20230;-64
2022/02/25 11:29:35;;;;;;;0.10;0.10;;;;;;;;;;5084381;28;20270;-64
2022/02/25 11:32:02;;;;;;;0.10;0.10;;;;;;;;;;5084412;28;20214;-65
2022/02/25 11:34:29;;;;;;;0.10;0.10;;;;;;;;;;5084446;28;20217;-65
2022/02/25 11:36:55;;;;;;;0.10;0.10;;;;;;;;;;5084355;28;20223;-65
2022/02/25 11:39:24;;;;;;;1.10;1.10;;;;;;;;;;5084348;28;20237;-65
2022/02/25 11:41:51;;;;;;;0.10;0.10;;;;;;;;;;5084679;28;20265;-64
2022/02/25 11:44:17;;;;;;;0.10;0.10;;;;;;;;;;5084255;28;20204;-65
2022/02/25 11:46:44;;;;;;;0.17;0.17;;;;;;;;;;5083917;28;20225;-65
2022/02/25 11:49:22;;;;;;;0.10;0.10;;;;;;;;;;5084406;28;20223;-65
2022/02/25 11:51:59;;;;;;;0.17;0.17;;;;;;;;;;5084447;28;20206;-63
2022/02/25 11:54:28;;;;;;;0.17;0.17;;;;;;;;;;5084475;28;20269;-64
2022/02/25 11:57:14;;;;;;;0.87;0.87;;;;;;;;;;5084074;28;20204;-64
2022/02/25 11:59:59;;;;;;;0.10;0.10;;;;;;;;;;5083924;28;20238;-63
2022/02/25 12:02:30;;;;;;;0.20;0.20;;;;;;;;;;5084320;28;20251;-64
2022/02/25 12:05:10;;;;;;;0.10;0.10;;;;;;;;;;5083800;28;20203;-65
2022/02/25 12:07:40;;;;;;;0.27;0.27;;;;;;;;;;5083974;28;20390;-65
2022/02/25 12:10:16;;;;;;;0.10;0.10;;;;;;;;;;5084181;28;20239;-65
2022/02/25 12:12:43;;;;;;;0.10;0.10;;;;;;;;;;5084313;28;20278;-65
2022/02/25 12:15:11;;;;;;;0.10;0.10;;;;;;;;;;5083797;28;20471;-65
2022/02/25 12:17:38;;;;;;;0.10;0.10;;;;;;;;;;5084080;28;20257;-64
2022/02/25 12:20:06;;;;;;;0.10;0.10;;;;;;;;;;5083575;28;20204;-65
2022/02/25 12:22:46;;;;;;;0.10;0.10;;;;;;;;;;5083940;28;20510;-64
2022/02/25 12:25:37;;;;;;;0.10;0.10;;;;;;;;;;5083546;28;20210;-65
2022/02/25 12:28:08;;;;;;;0.23;0.23;;;;;;;;;;5083875;28;20211;-65
2022/02/25 12:30:37;;;;;;;0.10;0.10;;;;;;;;;;5083750;28;20211;-65
2022/02/25 12:33:19;;;;;;;0.10;0.10;;;;;;;;;;5083327;28;20464;-66
2022/02/25 12:35:45;;;;;;;0.10;0.10;;;;;;;;;;5083144;28;20203;-64
2022/02/25 12:38:15;;;;;;;0.10;0.10;;;;;;;;;;5083774;28;20241;-65
2022/02/25 12:40:41;;;;;;;0.10;0.10;;;;;;;;;;5083051;28;20207;-65
2022/02/25 12:43:09;;;;;;;0.10;0.10;;;;;;;;;;5082884;28;20233;-65
2022/02/25 12:45:37;;;;;;;0.10;0.10;;;;;;;;;;5082545;28;20507;-64
2022/02/25 12:48:04;;;;;;;0.40;0.40;;;;;;;;;;5083337;28;20211;-64
2022/02/25 12:50:30;;;;;;;0.10;0.10;;;;;;;;;;5082884;28;20219;-64
2022/02/25 12:53:02;;;;;;;0.17;0.17;;;;;;;;;;5083346;28;20229;-65
2022/02/25 12:55:29;;;;;;;0.20;0.20;;;;;;;;;;5083199;28;20264;-65
2022/02/25 12:57:55;;;;;;;0.20;0.20;;;;;;;;;;5082741;28;20211;-64
2022/02/25 13:00:22;;;;;;;0.17;0.17;;;;;;;;;;5082696;28;20207;-64
2022/02/25 13:02:51;;;;;;;0.10;0.10;;;;;;;;;;5083173;28;20529;-66
2022/02/25 13:05:17;;;;;;;0.10;0.10;;;;;;;;;;5082684;28;20402;-64
2022/02/25 13:07:43;;;;;;;0.10;0.10;;;;;;;;;;5082688;28;20479;-65
2022/02/25 13:10:10;;;;;;;0.20;0.20;;;;;;;;;;5082643;28;20405;-65
2022/02/25 13:12:36;;;;;;;0.10;0.10;;;;;;;;;;5083075;28;20213;-65
2022/02/25 13:15:03;;;;;;;0.20;0.20;;;;;;;;;;5082982;28;20465;-65
2022/02/25 13:17:32;;;;;;;0.10;0.10;;;;;;;;;;5082913;28;20238;-65
2022/02/25 13:19:59;;;;;;;0.10;0.10;;;;;;;;;;5082800;28;20237;-64
2022/02/25 13:22:26;;;;;;;0.10;0.10;;;;;;;;;;5082869;28;20280;-64
2022/02/25 13:24:57;;;;;;;0.13;0.13;;;;;;;;;;5082316;28;20211;-65
2022/02/25 13:27:28;;;;;;;0.13;0.13;;;;;;;;;;5082817;28;20253;-65
2022/02/25 13:29:56;;;;;;;0.13;0.13;;;;;;;;;;5082619;28;20592;-64
2022/02/25 13:32:28;;;;;;;0.10;0.10;;;;;;;;;;5082889;28;20214;-65
2022/02/25 13:34:57;;;;;;;0.10;0.10;;;;;;;;;;5082751;28;20452;-65
2022/02/25 13:37:23;;;;;;;0.13;0.13;;;;;;;;;;5082827;28;20248;-64
2022/02/25 13:39:50;;;;;;;0.67;0.67;;;;;;;;;;5082600;28;20287;-65
2022/02/25 13:42:16;;;;;;;0.20;0.20;;;;;;;;;;5082509;28;20239;-64
2022/02/25 13:44:43;;;;;;;0.20;0.20;;;;;;;;;;5082614;28;20228;-65
2022/02/25 13:52:57;;;;;;;0.13;0.13;;;;;;;;;;5082617;28;20516;-65
2022/02/25 13:55:23;;;;;;;0.10;0.10;;;;;;;;;;5082251;28;20194;-65
2022/02/25 13:57:55;;;;;;;0.10;0.10;;;;;;;;;;5082616;28;20248;-65
2022/02/25 14:00:23;;;;;;;0.10;0.10;;;;;;;;;;5082067;28;20481;-65
2022/02/25 14:02:50;;;;;;;0.10;0.10;;;;;;;;;;5082420;28;20214;-65
2022/02/25 14:05:18;;;;;;;0.20;0.20;;;;;;;;;;5082249;28;20206;-65
2022/02/25 14:07:45;;;;;;;0.20;0.20;;;;;;;;;;5082327;28;20210;-64
2022/02/25 14:10:21;;;;;;;0.17;0.17;;;;;;;;;;5082066;28;20229;-63
2022/02/25 14:12:52;;;;;;;0.20;0.20;;;;;;;;;;5081439;28;20205;-64
2022/02/25 14:15:19;;;;;;;0.10;0.10;;;;;;;;;;5081946;28;20497;-64
2022/02/25 14:17:47;;;;;;;0.20;0.20;;;;;;;;;;5082523;28;20280;-64
2022/02/25 14:20:14;;;;;;;0.13;0.13;;;;;;;;;;5083823;28;20234;-64
2022/02/25 14:22:42;;;;;;;0.10;0.10;;;;;;;;;;5086211;28;20270;-64
2022/02/25 14:25:16;;;;;;;0.10;0.10;;;;;;;;;;5085794;28;20211;-64
2022/02/25 14:27:56;;;;;;;0.10;0.10;;;;;;;;;;5086075;28;20233;-64
2022/02/25 14:30:24;;;;;;;0.10;0.10;;;;;;;;;;5085573;28;20264;-64
2022/02/25 14:32:51;;;;;;;0.93;0.20;;;;;;;;;;5086030;28;20211;-64
2022/02/25 14:35:20;;;;;;;0.10;0.10;;;;;;;;;;5085551;28;20198;-65
2022/02/25 14:37:48;;;;;;;0.13;0.13;;;;;;;;;;5085661;28;20398;-65
2022/02/25 14:40:16;;;;;;;0.17;0.17;;;;;;;;;;5085519;28;20199;-64
2022/02/25 14:42:42;;;;;;;0.20;0.20;;;;;;;;;;5085619;28;20226;-65
2022/02/25 14:45:09;;;;;;;0.10;0.10;;;;;;;;;;5085634;28;20273;-65
2022/02/25 14:47:35;;;;;;;0.10;0.10;;;;;;;;;;5085630;28;20207;-64
2022/02/25 14:50:01;;;;;;;0.20;0.20;;;;;;;;;;5085554;28;20219;-63
2022/02/25 14:52:30;;;;;;;0.13;0.13;;;;;;;;;;5085563;28;20275;-66
2022/02/25 14:54:57;;;;;;;0.10;0.10;;;;;;;;;;5085392;28;20521;-65
2022/02/25 14:57:24;;;;;;;0.10;0.10;;;;;;;;;;5085662;28;20211;-65
2022/02/25 14:59:50;;;;;;;0.10;0.10;;;;;;;;;;5084979;28;20203;-63